• Join FlightAware (Why Join?)
  • Login
  • US Flag 
12:00PM EDT


 

Airport Tracker/Info


-or-


 

Live Flight TrackerFlight Track Log ✈ RPA4907 ✈ 12-Jul-2013 ✈ KEWR - KBWI

Flight Track Log - Related Links

Times and Time Zones

All times are in EDT time to prevent confusion due to time zone crossing. See the RPA4907 flight status page for this flight to view local times or setup timezone preferences in your user account.

Time Position Orientation Groundspeed Altitude Reporting Facility
EDT Latitude Longitude Course Direction KTS MPH feet Rate Location/Type
01:18PM 40.7333 -74.1333 217° Southwest 190 219 2,200  Level New York TRACON
01:19PM 40.7833 -74.1000 27° Northeast 227 261 4,100 1,560 Climbing New York TRACON
01:20PM 40.7833 -74.1833 270° West 266 306 5,200 1,920 Climbing New York TRACON
01:21PM 40.7667 -74.2667 255° West 253 291 7,800 2,040 Climbing New York TRACON
01:23PM 40.3890 -74.9944 217° Southwest  Level FlightAware Approximate
01:23PM 40.7097 -74.4094 242° Southwest 251 289 11,000  Level New York Center
01:24PM 40.6700 -74.4839 235° Southwest 264 304 12,200 1,140 Climbing New York Center
01:25PM 40.6231 -74.5769 236° Southwest 282 325 13,400 900 Climbing New York Center
01:26PM 40.5808 -74.6594 236° Southwest 294 338 14,000 300 Climbing New York Center
01:27PM 40.5231 -74.7708 236° Southwest 323 372 14,000  Level New York Center
01:28PM 40.4758 -74.8689 238° Southwest 355 409 14,100  Climbing New York Center
01:29PM 40.4222 -74.9722 236° Southwest 355 409 14,000 -60 Descending New York Center
01:30PM 40.3544 -75.0633 226° Southwest 340 391 14,000  Level New York Center
01:31PM 40.2969 -75.1494 229° Southwest 324 373 14,000  Level New York Center
01:32PM 40.2397 -75.2331 228° Southwest 319 367 14,000  Level New York Center
01:33PM 40.1742 -75.3103 222° Southwest 319 367 14,100  Climbing New York Center
01:34PM 40.1167 -75.3933 228° Southwest 314 361 14,100  Level New York Center
01:35PM 40.0569 -75.4789 228° Southwest 319 367 14,100  Level New York Center
01:36PM 40.0039 -75.5567 228° Southwest 325 374 14,100  Level New York Center
01:37PM 39.9375 -75.6522 228° Southwest 325 374 14,100 -480 Level New York Center
01:38PM 39.8861 -75.7325 230° Southwest 330 380 13,200 -1,080 Descending New York Center
01:39PM 39.8272 -75.8419 235° Southwest 335 386 12,000 -720 Descending New York Center
01:41PM 39.7167 -76.0500 235° Southwest 317 365 11,000 -300 Descending Potomac TRACON
01:42PM 39.6667 -76.1500 237° Southwest 327 376 11,100 -480 Climbing Potomac TRACON
01:43PM 39.6167 -76.2500 237° Southwest 318 366 10,200 -1,260 Descending Potomac TRACON
01:44PM 39.5667 -76.3333 232° Southwest 305 351 8,600 -1,560 Descending Potomac TRACON
01:45PM 39.5333 -76.4333 247° West 290 334 7,100 -1,560 Descending Potomac TRACON
01:46PM 39.4833 -76.5167 232° Southwest 271 312 5,500 -1,560 Descending Potomac TRACON
01:47PM 39.4500 -76.6000 243° Southwest 272 313 4,000 -1,200 Descending Potomac TRACON
01:48PM 39.4167 -76.6667 237° Southwest 261 300 3,300 -480 Descending Potomac TRACON
01:49PM 39.3833 -76.7500 243° Southwest 260 299 3,100 -120 Descending Potomac TRACON
01:50PM 39.3500 -76.8167 237° Southwest 263 303 3,100  Level Potomac TRACON